Time;durP1;ratioP1;P1;durP2;ratioP2;P2;SDS_P1;SDS_P2;PMS_P1;PMS_P2;Temp;Humidity;BMP_temperature;BMP_pressure;BME280_temperature;BME280_humidity;BME280_pressure;Samples;Min_cycle;Max_cycle;Signal;HPM_P1;HPM_P2
2023/05/30 00:01:18;;;;;;;;;;;;;;;14.30;58.02;96654.88;5089093;28;19963;-73
2023/05/30 00:03:44;;;;;;;;;;;;;;;14.27;58.19;96657.97;5107019;28;19956;-73
2023/05/30 00:06:11;;;;;;;;;;;;;;;14.25;57.88;96653.97;5106832;28;20264;-73
2023/05/30 00:08:37;;;;;;;;;;;;;;;14.21;59.04;96648.38;5106749;28;19958;-73
2023/05/30 00:11:02;;;;;;;;;;;;;;;14.19;57.89;96651.25;5106638;28;19989;-80
2023/05/30 00:13:28;;;;;;;;;;;;;;;14.17;59.52;96658.59;5106626;28;20057;-77
2023/05/30 00:15:57;;;;;;;;;;;;;;;14.15;59.54;96657.22;5106580;28;19961;-77
2023/05/30 00:18:23;;;;;;;;;;;;;;;14.14;60.52;96660.91;5106601;28;19963;-77
2023/05/30 00:20:50;;;;;;;;;;;;;;;14.12;60.35;96661.13;5106621;28;19963;-77
2023/05/30 00:23:16;;;;;;;;;;;;;;;14.10;58.76;96665.84;5106665;28;19952;-78
2023/05/30 00:25:42;;;;;;;;;;;;;;;14.07;59.96;96654.94;5106445;28;19968;-78
2023/05/30 00:28:09;;;;;;;;;;;;;;;14.05;58.82;96662.28;5106734;28;20010;-77
2023/05/30 00:30:35;;;;;;;;;;;;;;;14.02;59.57;96661.72;5106833;28;19954;-71
2023/05/30 00:33:01;;;;;;;;;;;;;;;14.00;58.98;96663.00;5106088;28;19959;-75
2023/05/30 00:35:27;;;;;;;;;;;;;;;13.97;59.94;96666.91;5105993;28;19965;-75
2023/05/30 00:37:53;;;;;;;;;;;;;;;13.97;60.05;96666.91;5088057;28;19955;-74
2023/05/30 00:40:19;;;;;;;;;;;;;;;13.94;60.80;96667.41;5106255;28;19946;-76
2023/05/30 00:42:44;;;;;;;;;;;;;;;13.90;60.17;96674.16;5106056;28;20148;-76
2023/05/30 00:45:10;;;;;;;;;;;;;;;13.88;58.74;96672.78;5106358;28;19957;-76
2023/05/30 00:47:36;;;;;;;;;;;;;;;13.84;61.42;96675.09;5106017;28;20007;-71
2023/05/30 00:50:03;;;;;;;;;;;;;;;13.80;61.68;96680.03;5106137;28;19954;-72
2023/05/30 00:52:29;;;;;;;;;;;;;;;13.76;62.71;96676.25;5106074;28;19952;-73
2023/05/30 00:54:55;;;;;;;;;;;;;;;13.73;63.63;96679.34;5106008;28;19955;-74
2023/05/30 00:57:21;;;;;;;;;;;;;;;13.70;61.63;96671.09;5105847;28;19974;-73
2023/05/30 00:59:47;;;;;;;;;;;;;;;13.68;60.98;96676.59;5106008;28;20135;-73
2023/05/30 01:02:13;;;;;;;;;;;;;;;13.65;61.97;96670.97;5105856;28;19955;-73
2023/05/30 01:04:40;;;;;;;;;;;;;;;13.62;61.47;96671.47;5105512;28;19954;-72
2023/05/30 01:07:10;;;;;;;;;;;;;;;13.58;62.27;96668.47;5105423;28;19971;-75
2023/05/30 01:09:36;;;;;;;;;;;;;;;13.56;62.11;96665.28;5105742;28;19957;-75
2023/05/30 01:12:16;;;;;;;;;;;;;;;13.53;64.93;96671.81;5087327;28;19957;-77
2023/05/30 01:14:47;;;;;;;;;;;;;;;13.51;63.54;96663.34;5105716;28;19955;-75
2023/05/30 01:17:17;;;;;;;;;;;;;;;13.48;61.05;96650.63;5105646;28;19955;-75
2023/05/30 01:19:53;;;;;;;;;;;;;;;13.47;64.72;96661.41;5104948;28;19955;-75
2023/05/30 01:22:18;;;;;;;;;;;;;;;13.45;62.91;96658.19;5105725;28;19960;-75
2023/05/30 01:25:05;;;;;;;;;;;;;;;13.43;62.79;96653.16;5105123;28;19992;-80
2023/05/30 01:27:39;;;;;;;;;;;;;;;13.42;64.51;96656.81;5104977;28;19960;-82
2023/05/30 01:30:08;;;;;;;;;;;;;;;13.40;66.63;96659.69;5105419;28;19952;-82
2023/05/30 01:32:34;;;;;;;;;;;;;;;13.40;66.17;96664.94;5105080;28;19969;-82
2023/05/30 01:35:00;;;;;;;;;;;;;;;13.38;64.69;96660.94;5105177;28;19954;-81
2023/05/30 01:37:25;;;;;;;;;;;;;;;13.36;66.19;96660.38;5105132;28;20067;-81
2023/05/30 01:39:51;;;;;;;;;;;;;;;13.35;68.66;96669.28;5105218;28;20242;-80
2023/05/30 01:42:21;;;;;;;;;;;;;;;13.34;67.49;96662.44;5086879;28;19967;-75
2023/05/30 01:44:47;;;;;;;;;;;;;;;13.33;67.58;96664.28;5105033;28;19962;-75
2023/05/30 01:47:24;;;;;;;;;;;;;;;13.34;67.84;96670.34;5104616;28;19989;-73
2023/05/30 01:49:55;;;;;;;;;;;;;;;13.31;67.35;96668.16;5104680;28;19969;-73
2023/05/30 01:52:24;;;;;;;;;;;;;;;13.30;66.55;96661.28;5105056;28;20263;-72
2023/05/30 01:54:56;;;;;;;;;;;;;;;13.31;67.21;96668.16;5104930;28;19960;-73
2023/05/30 01:57:24;;;;;;;;;;;;;;;13.32;68.52;96680.31;5104833;28;19979;-73
2023/05/30 01:59:51;;;;;;;;;;;;;;;13.33;67.15;96680.09;5104881;28;19969;-73
2023/05/30 02:02:17;;;;;;;;;;;;;;;13.34;68.23;96683.50;5104882;28;19961;-75
2023/05/30 02:04:43;;;;;;;;;;;;;;;13.34;68.44;96679.03;5104866;28;19960;-75
2023/05/30 02:07:09;;;;;;;;;;;;;;;13.38;69.02;96684.66;5104708;28;19959;-75
2023/05/30 02:09:35;;;;;;;;;;;;;;;13.42;68.53;96677.06;5104267;28;20193;-75
2023/05/30 02:12:02;;;;;;;;;;;;;;;13.44;68.46;96670.56;5104371;28;19963;-74
2023/05/30 02:14:29;;;;;;;;;;;;;;;13.46;68.06;96678.22;5086866;28;20251;-74
2023/05/30 02:16:59;;;;;;;;;;;;;;;13.45;68.64;96681.91;5104732;28;19956;-74
2023/05/30 02:19:25;;;;;;;;;;;;;;;13.47;68.72;96680.63;5103986;28;19955;-72
2023/05/30 02:21:51;;;;;;;;;;;;;;;13.47;68.00;96678.00;5104721;28;20049;-74
2023/05/30 02:24:16;;;;;;;;;;;;;;;13.48;67.91;96681.44;5104598;28;20243;-75
2023/05/30 02:26:42;;;;;;;;;;;;;;;13.49;68.37;96689.09;5104262;28;19970;-74
2023/05/30 02:29:08;;;;;;;;;;;;;;;13.51;68.58;96681.78;5104488;28;19953;-74
2023/05/30 02:31:34;;;;;;;;;;;;;;;13.51;68.31;96684.41;5106192;28;20245;-74
2023/05/30 02:34:00;;;;;;;;;;;;;;;13.50;68.61;96682.81;5108745;28;20280;-75
2023/05/30 02:36:26;;;;;;;;;;;;;;;13.48;68.90;96690.16;5108907;28;19936;-75
2023/05/30 02:38:51;;;;;;;;;;;;;;;13.46;68.44;96696.66;5109066;28;19961;-76
2023/05/30 02:41:17;;;;;;;;;;;;;;;13.43;68.66;96697.13;5108880;28;19960;-73
2023/05/30 02:43:43;;;;;;;;;;;;;;;13.42;68.57;96698.16;5108140;28;19969;-73
2023/05/30 02:46:09;;;;;;;;;;;;;;;13.36;68.25;96695.41;5108178;28;19963;-73
2023/05/30 02:48:35;;;;;;;;;;;;;;;13.30;68.95;96698.16;5108362;28;19962;-73
2023/05/30 02:51:01;;;;;;;;;;;;;;;13.22;69.65;96712.44;5108254;28;19986;-73
2023/05/30 02:53:26;;;;;;;;;;;;;;;13.14;71.61;96718.03;5108507;28;20015;-74
2023/05/30 02:55:54;;;;;;;;;;;;;;;13.05;69.82;96700.97;5108279;28;19955;-74
2023/05/30 02:58:20;;;;;;;;;;;;;;;12.96;69.93;96698.66;5108243;28;19963;-75
2023/05/30 03:00:45;;;;;;;;;;;;;;;12.88;72.20;96711.38;5108681;28;19956;-74
2023/05/30 03:03:11;;;;;;;;;;;;;;;12.86;71.92;96706.31;5108154;28;20174;-73
2023/05/30 03:05:37;;;;;;;;;;;;;;;12.82;71.91;96696.47;5108011;28;19939;-73
2023/05/30 03:08:03;;;;;;;;;;;;;;;12.76;72.63;96704.22;5108299;28;20292;-73
2023/05/30 03:10:29;;;;;;;;;;;;;;;12.75;73.03;96720.25;5107816;28;19949;-73
2023/05/30 03:12:55;;;;;;;;;;;;;;;12.74;73.63;96713.38;5108152;28;20102;-72
2023/05/30 03:15:21;;;;;;;;;;;;;;;12.76;72.91;96711.31;5107729;28;19963;-71
2023/05/30 03:17:47;;;;;;;;;;;;;;;12.78;73.06;96710.06;5107515;28;19964;-71
2023/05/30 03:20:13;;;;;;;;;;;;;;;12.77;70.73;96711.09;5107627;28;19952;-71
2023/05/30 03:22:39;;;;;;;;;;;;;;;12.79;72.70;96710.88;5107510;28;20302;-71
2023/05/30 03:25:05;;;;;;;;;;;;;;;12.79;72.67;96716.16;5107604;28;19959;-71
2023/05/30 03:27:31;;;;;;;;;;;;;;;12.81;72.52;96719.38;5107510;28;19964;-71
2023/05/30 03:29:57;;;;;;;;;;;;;;;12.80;72.01;96717.75;5107831;28;19962;-71
2023/05/30 03:32:23;;;;;;;;;;;;;;;12.75;72.03;96717.63;5107644;28;19963;-70
2023/05/30 03:34:49;;;;;;;;;;;;;;;12.73;72.87;96719.69;5107647;28;19962;-74
2023/05/30 03:37:15;;;;;;;;;;;;;;;12.71;72.16;96719.09;5107835;28;19949;-78
2023/05/30 03:39:41;;;;;;;;;;;;;;;12.67;72.97;96713.47;5107726;28;19982;-79
2023/05/30 03:42:06;;;;;;;;;;;;;;;12.68;72.60;96719.53;5088818;28;19959;-79
2023/05/30 03:44:32;;;;;;;;;;;;;;;12.70;72.27;96717.47;5106973;28;19964;-78
2023/05/30 03:46:58;;;;;;;;;;;;;;;12.67;74.97;96726.63;5107019;28;19958;-78
2023/05/30 03:49:24;;;;;;;;;;;;;;;12.63;74.02;96719.41;5107248;28;20245;-79
2023/05/30 03:51:50;;;;;;;;;;;;;;;12.64;71.89;96723.63;5107334;28;20265;-70
2023/05/30 03:54:16;;;;;;;;;;;;;;;12.63;75.04;96729.94;5107595;28;20243;-70
2023/05/30 03:56:42;;;;;;;;;;;;;;;12.64;73.47;96727.09;5107046;28;19973;-76
2023/05/30 03:59:07;;;;;;;;;;;;;;;12.64;75.80;96740.25;5107138;28;19983;-75
2023/05/30 04:01:34;;;;;;;;;;;;;;;12.62;76.03;96736.22;5107108;28;20170;-76
2023/05/30 04:03:59;;;;;;;;;;;;;;;12.64;74.33;96735.00;5107150;28;19950;-75
2023/05/30 04:06:25;;;;;;;;;;;;;;;12.67;73.88;96725.84;5106357;28;19990;-76
2023/05/30 04:08:51;;;;;;;;;;;;;;;12.73;75.40;96730.22;5106993;28;20235;-75
2023/05/30 04:11:17;;;;;;;;;;;;;;;12.76;75.65;96746.31;5107033;28;19960;-81
2023/05/30 04:13:43;;;;;;;;;;;;;;;12.75;75.89;96750.00;5072191;28;20156;-71
2023/05/30 04:16:09;;;;;;;;;;;;;;;12.73;72.83;96744.16;5088368;28;19954;-71
2023/05/30 04:18:40;;;;;;;;;;;;;;;12.72;74.63;96741.75;5106890;28;19963;-71
2023/05/30 04:21:07;;;;;;;;;;;;;;;12.73;75.15;96746.00;5106946;28;19951;-72
2023/05/30 04:23:33;;;;;;;;;;;;;;;12.74;75.21;96752.84;5106515;28;20109;-71
2023/05/30 04:25:59;;;;;;;;;;;;;;;12.74;74.07;96745.75;5106521;28;19956;-71
2023/05/30 04:28:27;;;;;;;;;;;;;;;12.75;74.25;96757.09;5106483;28;19976;-76
2023/05/30 04:30:54;;;;;;;;;;;;;;;12.74;76.55;96756.28;5106660;28;20159;-80
2023/05/30 04:33:20;;;;;;;;;;;;;;;12.76;75.08;96754.22;5106450;28;19962;-79
2023/05/30 04:35:47;;;;;;;;;;;;;;;12.78;75.40;96759.28;5105964;28;19994;-79
2023/05/30 04:38:19;;;;;;;;;;;;;;;12.80;75.55;96755.38;5106678;28;19951;-79
2023/05/30 04:40:49;;;;;;;;;;;;;;;12.86;75.78;96766.06;5106578;28;19949;-79
2023/05/30 04:43:19;;;;;;;;;;;;;;;12.91;75.99;96781.97;5106044;28;19957;-79
2023/05/30 04:45:47;;;;;;;;;;;;;;;12.94;75.44;96777.06;5106013;28;20289;-79
2023/05/30 04:48:15;;;;;;;;;;;;;;;12.98;74.60;96777.44;5087741;28;19958;-73
2023/05/30 04:50:46;;;;;;;;;;;;;;;13.01;76.61;96798.03;5106006;28;19980;-73
2023/05/30 04:53:13;;;;;;;;;;;;;;;13.04;76.57;96794.13;5105981;28;20116;-74
2023/05/30 04:55:39;;;;;;;;;;;;;;;13.07;76.11;96793.72;5105242;28;20218;-73
2023/05/30 04:58:05;;;;;;;;;;;;;;;13.09;77.28;96791.66;5106057;28;20001;-73
2023/05/30 05:00:31;;;;;;;;;;;;;;;13.10;75.59;96793.25;5105475;28;20258;-74
2023/05/30 05:02:57;;;;;;;;;;;;;;;13.11;75.42;96790.41;5106169;28;19965;-73
2023/05/30 05:05:22;;;;;;;;;;;;;;;13.13;76.36;96785.72;5105971;28;19958;-71
2023/05/30 05:07:48;;;;;;;;;;;;;;;13.18;76.23;96792.91;5105436;28;19967;-78
2023/05/30 05:10:14;;;;;;;;;;;;;;;13.22;75.90;96794.06;5105597;28;19974;-73
2023/05/30 05:12:40;;;;;;;;;;;;;;;13.27;74.02;96794.22;5105905;28;19967;-73
2023/05/30 05:15:06;;;;;;;;;;;;;;;13.38;74.85;96795.28;5105883;28;20300;-73
2023/05/30 05:17:32;;;;;;;;;;;;;;;13.51;75.97;96795.06;5105515;28;19955;-73
2023/05/30 05:19:58;;;;;;;;;;;;;;;13.64;75.76;96796.69;5105569;28;19955;-73
2023/05/30 05:22:24;;;;;;;;;;;;;;;13.78;75.13;96787.53;5105631;28;19966;-73
2023/05/30 05:24:50;;;;;;;;;;;;;;;13.91;74.63;96789.13;5105615;28;19954;-71
2023/05/30 05:27:16;;;;;;;;;;;;;;;14.00;75.03;96785.09;5087195;28;19971;-71
2023/05/30 05:29:42;;;;;;;;;;;;;;;14.06;74.26;96788.66;5104917;28;19939;-71
2023/05/30 05:32:08;;;;;;;;;;;;;;;14.12;73.10;96785.09;5105195;28;20139;-72
2023/05/30 05:34:34;;;;;;;;;;;;;;;14.25;72.98;96784.03;5105296;28;19980;-71
2023/05/30 05:36:59;;;;;;;;;;;;;;;14.38;73.76;96783.78;5104918;28;20026;-71
2023/05/30 05:39:25;;;;;;;;;;;;;;;14.58;72.72;96779.97;5104998;28;20229;-71
2023/05/30 05:41:51;;;;;;;;;;;;;;;14.72;72.40;96780.47;5104997;28;19966;-74
2023/05/30 05:44:17;;;;;;;;;;;;;;;14.79;71.80;96784.59;5105426;28;19952;-73
2023/05/30 05:46:43;;;;;;;;;;;;;;;14.91;71.45;96786.38;5104886;28;20006;-71
2023/05/30 05:49:08;;;;;;;;;;;;;;;15.08;71.12;96787.22;5086689;28;19959;-71
2023/05/30 05:51:35;;;;;;;;;;;;;;;15.26;70.21;96780.91;5105167;28;19990;-71
2023/05/30 05:54:01;;;;;;;;;;;;;;;15.42;70.03;96789.88;5105073;28;20003;-71
2023/05/30 05:56:27;;;;;;;;;;;;;;;15.61;70.44;96790.44;5105046;28;19955;-72
2023/05/30 05:58:53;;;;;;;;;;;;;;;15.67;68.66;96796.63;5104943;28;19987;-71
2023/05/30 06:01:19;;;;;;;;;;;;;;;15.68;68.30;96787.63;5104750;28;19940;-73
2023/05/30 06:03:45;;;;;;;;;;;;;;;15.72;68.34;96783.50;5105040;28;20124;-73
2023/05/30 06:06:11;;;;;;;;;;;;;;;15.67;67.87;96791.34;5104953;28;19956;-74
2023/05/30 06:08:37;;;;;;;;;;;;;;;15.66;68.19;96787.06;5086854;28;20153;-74
2023/05/30 06:11:03;;;;;;;;;;;;;;;15.63;67.93;96785.72;5104606;28;19953;-75
2023/05/30 06:13:29;;;;;;;;;;;;;;;15.68;68.70;96792.91;5104943;28;20245;-74
2023/05/30 06:15:55;;;;;;;;;;;;;;;15.76;68.67;96792.53;5104594;28;19974;-73
2023/05/30 06:18:21;;;;;;;;;;;;;;;15.85;68.30;96800.88;5104642;28;19960;-71
2023/05/30 06:20:47;;;;;;;;;;;;;;;15.88;68.60;96803.03;5104882;28;20156;-71
2023/05/30 06:23:12;;;;;;;;;;;;;;;15.89;67.74;96794.84;5104655;28;20257;-74
2023/05/30 06:25:39;;;;;;;;;;;;;;;15.95;68.07;96795.72;5104112;28;19961;-74
2023/05/30 06:28:05;;;;;;;;;;;;;;;16.03;67.66;96793.47;5104618;28;19964;-76
2023/05/30 06:30:31;;;;;;;;;;;;;;;16.11;67.77;96794.09;5104130;28;19940;-74
2023/05/30 06:32:56;;;;;;;;;;;;;;;16.19;67.85;96802.41;5104131;28;19966;-74
2023/05/30 06:35:22;;;;;;;;;;;;;;;16.27;67.72;96795.09;5104199;28;20009;-75
2023/05/30 06:37:48;;;;;;;;;;;;;;;16.31;66.67;96790.91;5104217;28;19955;-78
2023/05/30 06:40:14;;;;;;;;;;;;;;;16.32;66.11;96792.53;5104231;28;19949;-79
2023/05/30 06:42:40;;;;;;;;;;;;;;;16.37;66.60;96801.31;5104672;28;19957;-79
2023/05/30 06:45:06;;;;;;;;;;;;;;;16.40;65.74;96800.03;5104267;28;20281;-79
2023/05/30 06:47:32;;;;;;;;;;;;;;;16.52;65.89;96803.34;5104230;28;19964;-79
2023/05/30 06:49:58;;;;;;;;;;;;;;;16.71;66.98;96810.97;5104367;28;20133;-80
2023/05/30 06:52:23;;;;;;;;;;;;;;;16.93;66.37;96803.03;5104340;28;19952;-83
2023/05/30 06:54:50;;;;;;;;;;;;;;;17.11;64.00;96796.56;5104053;28;19957;-81
2023/05/30 06:57:15;;;;;;;;;;;;;;;17.10;64.03;96795.78;5104464;28;19962;-71
2023/05/30 06:59:41;;;;;;;;;;;;;;;17.11;64.31;96799.22;5104424;28;20165;-71
2023/05/30 07:02:07;;;;;;;;;;;;;;;17.10;63.67;96795.78;5104421;28;19973;-71
2023/05/30 07:04:33;;;;;;;;;;;;;;;17.19;64.21;96796.91;5103921;28;20153;-72
2023/05/30 07:06:59;;;;;;;;;;;;;;;17.26;64.02;96799.38;5103933;28;19953;-72
2023/05/30 07:09:26;;;;;;;;;;;;;;;17.34;64.23;96793.59;5104356;28;20000;-71
2023/05/30 07:11:52;;;;;;;;;;;;;;;17.44;64.13;96795.53;5104475;28;19961;-72
2023/05/30 07:14:18;;;;;;;;;;;;;;;17.53;63.89;96799.31;5104053;28;19952;-71
2023/05/30 07:16:43;;;;;;;;;;;;;;;17.54;63.08;96797.47;5104291;28;19958;-74
2023/05/30 07:19:10;;;;;;;;;;;;;;;17.60;63.60;96799.91;5107301;28;19972;-73
2023/05/30 07:21:36;;;;;;;;;;;;;;;17.68;62.49;96801.31;5108088;28;19961;-73
2023/05/30 07:24:02;;;;;;;;;;;;;;;17.69;63.28;96810.84;5108009;28;19953;-74
2023/05/30 07:26:28;;;;;;;;;;;;;;;17.67;62.59;96798.91;5107937;28;20056;-75
2023/05/30 07:28:53;;;;;;;;;;;;;;;17.62;62.35;96807.63;5107731;28;19965;-73
2023/05/30 07:31:19;;;;;;;;;;;;;;;17.62;63.07;96805.75;5107922;28;19956;-74
2023/05/30 07:33:45;;;;;;;;;;;;;;;17.67;62.55;96799.69;5107330;28;19960;-74
2023/05/30 07:36:11;;;;;;;;;;;;;;;17.62;62.57;96795.16;5089258;28;19994;-71
2023/05/30 07:38:37;;;;;;;;;;;;;;;17.61;62.48;96803.34;5107298;28;19960;-73
2023/05/30 07:41:03;;;;;;;;;;;;;;;17.64;62.36;96795.69;5107309;28;20159;-71
2023/05/30 07:43:29;;;;;;;;;;;;;;;17.74;62.22;96796.81;5107008;28;19969;-72
2023/05/30 07:45:55;;;;;;;;;;;;;;;17.75;62.48;96791.25;5107292;28;19949;-71
2023/05/30 07:48:21;;;;;;;;;;;;;;;17.83;63.24;96795.34;5107524;28;19965;-71
2023/05/30 07:50:46;;;;;;;;;;;;;;;17.91;61.62;96800.16;5107371;28;20229;-75
2023/05/30 07:53:12;;;;;;;;;;;;;;;18.08;60.80;96793.88;5107378;28;19963;-74
2023/05/30 07:55:38;;;;;;;;;;;;;;;18.23;61.25;96794.75;5107338;28;19948;-72
2023/05/30 07:58:04;;;;;;;;;;;;;;;18.28;60.83;96793.97;5107299;28;19968;-73
2023/05/30 08:00:30;;;;;;;;;;;;;;;18.42;60.56;96794.31;5107431;28;19946;-72
2023/05/30 08:02:56;;;;;;;;;;;;;;;18.56;61.01;96792.78;5072513;28;20000;-71
2023/05/30 08:05:21;;;;;;;;;;;;;;;18.65;59.45;96791.22;5107398;28;20180;-71
2023/05/30 08:07:47;;;;;;;;;;;;;;;18.73;59.42;96791.75;5107190;28;20005;-71
2023/05/30 08:10:13;;;;;;;;;;;;;;;18.78;58.46;96781.97;5107113;28;20256;-72
2023/05/30 08:12:40;;;;;;;;;;;;;;;18.78;58.59;96781.16;5106689;28;19960;-84
2023/05/30 08:15:07;;;;;;;;;;;;;;;18.85;59.36;96790.47;5106950;28;19964;-80
2023/05/30 08:17:33;;;;;;;;;;;;;;;19.09;58.93;96778.56;5106769;28;20136;-78
2023/05/30 08:20:00;;;;;;;;;;;;;;;19.31;58.53;96776.47;5106951;28;19950;-85
2023/05/30 08:22:26;;;;;;;;;;;;;;;19.55;57.52;96774.09;5106774;28;19961;-84
2023/05/30 08:24:54;;;;;;;;;;;;;;;19.73;56.62;96772.75;5106799;28;19952;-84
2023/05/30 08:27:21;;;;;;;;;;;;;;;19.94;56.92;96778.03;5106600;28;19952;-73
2023/05/30 08:29:50;;;;;;;;;;;;;;;20.12;54.80;96766.03;5106318;28;19970;-72
2023/05/30 08:32:16;;;;;;;;;;;;;;;20.15;55.03;96768.94;5088487;28;19962;-72
2023/05/30 08:34:43;;;;;;;;;;;;;;;20.22;55.43;96776.63;5106133;28;20106;-72
2023/05/30 08:37:09;;;;;;;;;;;;;;;20.30;54.29;96770.75;5105991;28;19954;-72
2023/05/30 08:39:35;;;;;;;;;;;;;;;20.43;54.62;96764.84;5106523;28;19957;-73
2023/05/30 08:42:01;;;;;;;;;;;;;;;20.47;53.17;96765.06;5106371;28;19967;-72
2023/05/30 08:44:28;;;;;;;;;;;;;;;20.45;54.60;96764.56;5106557;28;19960;-71
2023/05/30 08:46:55;;;;;;;;;;;;;;;20.48;53.65;96766.69;5106260;28;19960;-76
2023/05/30 08:49:22;;;;;;;;;;;;;;;20.47;53.77;96770.41;5106089;28;19955;-84
2023/05/30 08:51:48;;;;;;;;;;;;;;;20.50;51.80;96755.75;5106164;28;19961;-82
2023/05/30 08:54:21;;;;;;;;;;;;;;;20.60;54.34;96769.84;5105639;28;20011;-83
2023/05/30 08:56:50;;;;;;;;;;;;;;;20.71;52.98;96767.94;5106161;28;20235;-84
2023/05/30 08:59:18;;;;;;;;;;;;;;;20.70;52.11;96763.66;5088387;28;19960;-85
2023/05/30 09:01:45;;;;;;;;;;;;;;;20.74;52.50;96771.91;5106205;28;19957;-83
2023/05/30 09:04:13;;;;;;;;;;;;;;;20.81;52.92;96765.22;5105860;28;19953;-76
2023/05/30 09:06:39;;;;;;;;;;;;;;;20.98;52.39;96769.38;5105726;28;19956;-72
2023/05/30 09:09:08;;;;;;;;;;;;;;;21.11;51.94;96759.97;5105541;28;20233;-75
2023/05/30 09:11:34;;;;;;;;;;;;;;;21.24;52.97;96759.31;5105485;28;19953;-75
2023/05/30 09:14:00;;;;;;;;;;;;;;;21.32;52.13;96757.94;5105673;28;19965;-75
2023/05/30 09:16:26;;;;;;;;;;;;;;;21.35;53.37;96763.50;5105795;28;19956;-75
2023/05/30 09:18:52;;;;;;;;;;;;;;;21.35;51.48;96760.03;5105645;28;20000;-75
2023/05/30 09:21:17;;;;;;;;;;;;;;;21.36;51.36;96764.31;5105721;28;19957;-75
2023/05/30 09:23:43;;;;;;;;;;;;;;;21.35;51.01;96768.81;5105811;28;19947;-73
2023/05/30 09:26:14;;;;;;;;;;;;;;;21.44;50.81;96761.03;5104716;28;20125;-72
2023/05/30 09:28:43;;;;;;;;;;;;;;;21.58;51.90;96761.22;5105049;28;20263;-71
2023/05/30 09:31:09;;;;;;;;;;;;;;;21.60;49.92;96762.50;5105413;28;19969;-72
2023/05/30 09:33:45;;;;;;;;;;;;;;;21.59;48.67;96760.94;5105227;28;19932;-72
2023/05/30 09:36:18;;;;;;;;;;;;;;;21.60;50.61;96767.84;5086832;28;19963;-72
2023/05/30 09:38:59;;;;;;;;;;;;;;;21.63;50.14;96767.31;5105203;28;19956;-72
2023/05/30 09:41:26;;;;;;;;;;;;;;;21.71;49.57;96771.22;5104900;28;19956;-72
2023/05/30 09:43:53;;;;;;;;;;;;;;;21.75;50.40;96768.78;5104491;28;20273;-72
2023/05/30 09:46:23;;;;;;;;;;;;;;;21.82;49.60;96769.28;5087247;28;20221;-86
2023/05/30 09:48:49;;;;;;;;;;;;;;;21.94;49.59;96779.56;5104823;28;19964;-86
2023/05/30 09:51:16;;;;;;;;;;;;;;;22.02;48.43;96768.25;5105113;28;19958;-86
2023/05/30 09:54:01;;;;;;;;;;;;;;;22.09;49.76;96769.53;5104543;28;19957;-86
2023/05/30 09:56:37;;;;;;;;;;;;;;;22.18;48.81;96779.59;5104926;28;19951;-86
2023/05/30 09:59:06;;;;;;;;;;;;;;;22.21;48.35;96777.13;5104821;28;19953;-75
2023/05/30 10:01:45;;;;;;;;;;;;;;;22.29;48.98;96778.41;5104860;28;19949;-72
2023/05/30 10:04:15;;;;;;;;;;;;;;;22.41;47.88;96775.34;5104132;28;19957;-73
2023/05/30 10:06:42;;;;;;;;;;;;;;;22.45;47.40;96773.69;5104762;28;20263;-72
2023/05/30 10:09:09;;;;;;;;;;;;;;;22.49;47.92;96770.16;5105126;28;19957;-72
2023/05/30 10:11:36;;;;;;;;;;;;;;;22.60;48.43;96776.16;5104510;28;19960;-73
2023/05/30 10:14:02;;;;;;;;;;;;;;;22.64;47.75;96771.03;5104577;28;20112;-72
2023/05/30 10:16:28;;;;;;;;;;;;;;;22.62;46.36;96760.63;5104612;28;19959;-72
2023/05/30 10:18:56;;;;;;;;;;;;;;;22.63;46.20;96759.53;5104608;28;19962;-75
2023/05/30 10:21:22;;;;;;;;;;;;;;;22.68;46.50;96759.47;5086711;28;19961;-72
2023/05/30 10:23:49;;;;;;;;;;;;;;;22.72;45.34;96756.22;5104640;28;20146;-72
2023/05/30 10:26:16;;;;;;;;;;;;;;;22.82;46.08;96756.88;5104880;28;19957;-72
2023/05/30 10:28:46;;;;;;;;;;;;;;;22.96;45.59;96751.59;5104707;28;19967;-72
2023/05/30 10:31:12;;;;;;;;;;;;;;;23.12;44.59;96740.69;5104645;28;20259;-73
2023/05/30 10:33:39;;;;;;;;;;;;;;;23.21;45.12;96746.97;5104717;28;19937;-72
2023/05/30 10:36:06;;;;;;;;;;;;;;;23.28;45.35;96752.75;5104308;28;19967;-75
2023/05/30 10:38:35;;;;;;;;;;;;;;;23.37;43.94;96747.53;5104411;28;19963;-74
2023/05/30 10:41:20;;;;;;;;;;;;;;;23.25;40.10;96737.28;5104217;28;19961;-75
2023/05/30 10:44:02;;;;;;;;;;;;;;;23.36;44.38;96753.97;5104746;28;19950;-75
2023/05/30 10:46:41;;;;;;;;;;;;;;;23.49;44.40;96755.88;5104522;28;19957;-75
2023/05/30 10:49:10;;;;;;;;;;;;;;;23.61;40.80;96748.19;5104489;28;19969;-75
2023/05/30 10:52:02;;;;;;;;;;;;;;;23.53;42.34;96750.75;5104488;28;19955;-76
2023/05/30 10:54:28;;;;;;;;;;;;;;;23.56;40.81;96756.31;5085377;28;19960;-75
2023/05/30 10:56:54;;;;;;;;;;;;;;;23.72;43.78;96756.84;5108326;28;19958;-74
2023/05/30 10:59:21;;;;;;;;;;;;;;;23.91;43.08;96751.44;5107995;28;19969;-75
2023/05/30 11:02:04;;;;;;;;;;;;;;;24.08;42.94;96745.50;5108226;28;19975;-75
2023/05/30 11:04:38;;;;;;;;;;;;;;;24.20;43.47;96747.69;5108297;28;20103;-76
2023/05/30 11:07:07;;;;;;;;;;;;;;;24.34;41.04;96743.13;5108434;28;19964;-75
2023/05/30 11:09:38;;;;;;;;;;;;;;;24.41;41.01;96751.53;5107616;28;19956;-76
2023/05/30 11:12:06;;;;;;;;;;;;;;;24.48;40.82;96751.94;5108148;28;19956;-74
2023/05/30 11:14:33;;;;;;;;;;;;;;;24.29;38.68;96751.25;5107890;28;19956;-77
2023/05/30 11:17:12;;;;;;;;;;;;;;;24.30;41.13;96750.94;5108294;28;19965;-77
2023/05/30 11:19:39;;;;;;;;;;;;;;;24.44;41.40;96753.63;5108029;28;20228;-77
2023/05/30 11:22:10;;;;;;;;;;;;;;;24.51;41.24;96745.19;5107844;28;19965;-77
2023/05/30 11:24:36;;;;;;;;;;;;;;;24.62;40.50;96735.84;5107673;28;19955;-77
2023/05/30 11:27:07;;;;;;;;;;;;;;;24.64;37.74;96739.00;5107859;28;19972;-76
2023/05/30 11:29:35;;;;;;;;;;;;;;;24.68;39.89;96740.00;5107567;28;19964;-77
2023/05/30 11:32:01;;;;;;;;;;;;;;;24.70;39.31;96739.69;5106919;28;19954;-75
2023/05/30 11:34:27;;;;;;;;;;;;;;;24.78;38.97;96735.50;5107141;28;19962;-86
2023/05/30 11:36:55;;;;;;;;;;;;;;;24.81;40.05;96735.69;5107776;28;19958;-86
2023/05/30 11:39:22;;;;;;;;;;;;;;;24.81;39.82;96727.66;5107346;28;19964;-87
2023/05/30 11:41:48;;;;;;;;;;;;;;;24.87;41.14;96723.75;5107547;28;20229;-87
2023/05/30 11:44:14;;;;;;;;;;;;;;;24.95;40.54;96719.56;5107136;28;19956;-86
2023/05/30 11:46:41;;;;;;;;;;;;;;;25.08;40.22;96724.06;5107307;28;19968;-87
2023/05/30 11:49:07;;;;;;;;;;;;;;;25.17;38.68;96720.66;5107054;28;19960;-86
2023/05/30 11:51:33;;;;;;;;;;;;;;;25.25;36.96;96718.06;5107186;28;19955;-75
2023/05/30 11:53:59;;;;;;;;;;;;;;;25.17;37.51;96713.38;5106689;28;19968;-72
2023/05/30 11:56:29;;;;;;;;;;;;;;;25.27;37.30;96713.16;5107136;28;20223;-72
2023/05/30 11:58:56;;;;;;;;;;;;;;;25.22;38.82;96724.06;5107293;28;19960;-72
2023/05/30 12:01:22;;;;;;;;;;;;;;;25.28;39.08;96713.97;5107266;28;20148;-72
2023/05/30 12:03:48;;;;;;;;;;;;;;;25.41;38.41;96701.56;5106759;28;19949;-72
2023/05/30 12:06:14;;;;;;;;;;;;;;;25.58;39.16;96704.34;5107240;28;19989;-72
2023/05/30 12:08:41;;;;;;;;;;;;;;;25.55;38.94;96696.13;5106727;28;20113;-77
2023/05/30 12:11:09;;;;;;;;;;;;;;;25.52;38.65;96703.69;5106762;28;20144;-76
2023/05/30 12:13:35;;;;;;;;;;;;;;;25.52;37.67;96706.38;5106708;28;19957;-72
2023/05/30 12:16:01;;;;;;;;;;;;;;;25.55;38.33;96698.81;5106763;28;19947;-72
2023/05/30 12:18:26;;;;;;;;;;;;;;;25.47;36.05;96698.47;5106736;28;19960;-72
2023/05/30 12:20:52;;;;;;;;;;;;;;;25.34;38.95;96698.53;5106766;28;19957;-72
2023/05/30 12:23:24;;;;;;;;;;;;;;;25.08;38.61;96702.59;5106842;28;20159;-72
2023/05/30 12:25:54;;;;;;;;;;;;;;;24.76;38.49;96705.50;5106814;28;19964;-72
2023/05/30 12:28:20;;;;;;;;;;;;;;;24.77;39.24;96702.53;5106680;28;19951;-83
2023/05/30 12:30:47;;;;;;;;;;;;;;;24.84;39.54;96710.97;5106534;28;19956;-75
2023/05/30 12:33:21;;;;;;;;;;;;;;;24.99;39.27;96706.31;5106211;28;19965;-75
2023/05/30 12:35:50;;;;;;;;;;;;;;;25.17;37.56;96715.28;5106615;28;19964;-76
2023/05/30 12:38:16;;;;;;;;;;;;;;;25.17;37.29;96707.22;5106304;28;19952;-76
2023/05/30 12:40:51;;;;;;;;;;;;;;;25.21;38.49;96703.66;5106281;28;19956;-76
2023/05/30 12:43:25;;;;;;;;;;;;;;;25.07;36.79;96709.06;5105947;28;19979;-76
2023/05/30 12:45:51;;;;;;;;;;;;;;;24.83;35.26;96697.84;5106380;28;19977;-73
2023/05/30 12:48:16;;;;;;;;;;;;;;;24.81;36.58;96700.03;5106178;28;20139;-87